createdAt,value
2022-09-20T00:04:49.798Z,1.30
2022-09-20T00:09:51.554Z,1.35
2022-09-20T00:14:53.189Z,1.52
2022-09-20T00:19:54.835Z,1.75
2022-09-20T00:24:56.619Z,1.42
2022-09-20T00:29:58.711Z,1.17
2022-09-20T00:35:10.797Z,1.60
2022-09-20T00:40:21.661Z,1.40
2022-09-20T00:45:29.500Z,1.75
2022-09-20T00:50:33.291Z,1.55
2022-09-20T00:55:38.728Z,1.33
2022-09-20T01:00:42.305Z,1.75
2022-09-20T01:05:45.548Z,1.30
2022-09-20T01:10:47.521Z,1.75
2022-09-20T01:15:50.708Z,1.45
2022-09-20T01:20:52.573Z,2.75
2022-09-20T01:26:15.305Z,2.38
2022-09-20T01:31:54.178Z,1.05
2022-09-20T01:37:11.612Z,2.28
2022-09-20T01:42:19.297Z,2.03
2022-09-20T01:47:49.157Z,1.33
2022-09-20T01:53:15.294Z,1.48
2022-09-20T01:59:12.858Z,1.63
2022-09-20T02:04:53.400Z,1.48
2022-09-20T02:10:00.826Z,1.60
2022-09-20T02:15:36.394Z,1.60
2022-09-20T02:20:56.135Z,1.25
2022-09-20T02:25:57.604Z,1.63
2022-09-20T02:31:21.022Z,1.35
2022-09-20T02:36:39.342Z,1.13
2022-09-20T02:42:27.017Z,1.60
2022-09-20T02:47:40.179Z,1.20
2022-09-20T02:53:11.046Z,1.25
2022-09-20T03:03:44.570Z,1.10
2022-09-20T03:09:18.299Z,1.75
2022-09-20T03:15:02.268Z,1.67
2022-09-20T03:20:27.449Z,1.55
2022-09-20T03:25:39.382Z,1.30
2022-09-20T03:30:56.945Z,1.73
2022-09-20T03:36:24.443Z,1.20
2022-09-20T03:41:54.055Z,1.65
2022-09-20T03:47:15.807Z,1.45
2022-09-20T03:52:31.166Z,1.50
2022-09-20T03:57:55.318Z,1.45
2022-09-20T04:03:24.210Z,1.00
2022-09-20T04:09:01.329Z,1.63
2022-09-20T04:14:23.641Z,1.77
2022-09-20T04:19:35.225Z,1.10
2022-09-20T04:24:48.733Z,1.10
2022-09-20T04:29:58.190Z,1.10
2022-09-20T04:35:24.315Z,1.20
2022-09-20T04:40:57.552Z,0.75
2022-09-20T04:46:46.350Z,1.58
2022-09-20T04:52:10.151Z,1.00
2022-09-20T04:57:17.696Z,1.52
2022-09-20T05:02:40.174Z,1.02
2022-09-20T05:08:18.309Z,1.20
2022-09-20T05:13:47.419Z,1.20
2022-09-20T05:19:04.082Z,1.33
2022-09-20T05:24:28.228Z,1.17
2022-09-20T05:29:56.916Z,1.40
2022-09-20T05:35:21.645Z,1.90
2022-09-20T05:40:23.207Z,1.85
2022-09-20T05:45:51.268Z,1.70
2022-09-20T05:51:08.824Z,1.60
2022-09-20T05:56:25.554Z,2.95
2022-09-20T06:01:32.407Z,1.38
2022-09-20T06:06:55.244Z,2.00
2022-09-20T06:11:56.684Z,1.60
2022-09-20T06:17:32.976Z,1.20
2022-09-20T06:22:42.772Z,1.90
2022-09-20T06:27:59.123Z,1.55
2022-09-20T06:33:00.636Z,2.25
2022-09-20T06:38:48.764Z,1.70
2022-09-20T06:43:58.566Z,1.35
2022-09-20T06:49:00.651Z,1.38
2022-09-20T06:54:03.447Z,1.10
2022-09-20T06:59:14.245Z,1.38
2022-09-20T07:04:15.787Z,1.77
2022-09-20T07:09:17.949Z,1.52
2022-09-20T07:14:19.922Z,1.65
2022-09-20T07:19:23.424Z,1.25
2022-09-20T07:24:24.998Z,1.23
2022-09-20T07:29:27.321Z,1.27
2022-09-20T07:34:29.467Z,1.40
2022-09-20T07:39:31.034Z,1.13
2022-09-20T07:44:32.614Z,1.02
2022-09-20T07:49:34.296Z,1.02
2022-09-20T07:54:43.763Z,1.25
2022-09-20T07:59:45.431Z,1.27
2022-09-20T08:04:49.975Z,1.10
2022-09-20T08:09:51.849Z,1.45
2022-09-20T08:14:53.725Z,1.45
2022-09-20T08:19:58.257Z,0.93
2022-09-20T08:25:00.301Z,1.25
2022-09-20T08:30:02.373Z,1.15
2022-09-20T08:35:04.313Z,1.08
2022-09-20T08:40:06.718Z,1.33
2022-09-20T08:45:33.919Z,1.00
2022-09-20T08:50:37.341Z,1.00
2022-09-20T08:55:41.901Z,0.98
2022-09-20T09:00:47.270Z,1.00
2022-09-20T09:05:52.810Z,0.90
2022-09-20T09:11:08.768Z,0.70
2022-09-20T09:16:21.991Z,1.00
2022-09-20T09:21:29.917Z,0.73
2022-09-20T09:26:40.289Z,0.90
2022-09-20T09:31:44.951Z,0.88
2022-09-20T09:36:47.023Z,1.08
2022-09-20T09:41:49.029Z,0.77
2022-09-20T09:46:53.837Z,1.83
2022-09-20T09:52:16.644Z,0.63
2022-09-20T09:57:48.625Z,0.80
2022-09-20T10:03:27.232Z,0.75
2022-09-20T10:08:56.554Z,1.85
2022-09-20T10:14:33.596Z,1.13
2022-09-20T10:19:50.940Z,1.83
2022-09-20T10:25:14.648Z,0.63
2022-09-20T10:30:20.563Z,1.00
2022-09-20T10:35:37.338Z,0.70
2022-09-20T10:41:16.618Z,0.88
2022-09-20T10:46:34.176Z,0.73
2022-09-20T10:52:03.127Z,0.80
2022-09-20T10:57:31.674Z,0.73
2022-09-20T11:02:50.126Z,0.40
2022-09-20T11:08:06.647Z,0.70
2022-09-20T11:13:27.143Z,0.77
2022-09-20T11:18:41.494Z,2.17
2022-09-20T11:24:01.911Z,0.93
2022-09-20T11:29:23.036Z,0.88
2022-09-20T11:34:37.412Z,0.47
2022-09-20T11:39:55.585Z,0.80
2022-09-20T11:44:57.458Z,0.75
2022-09-20T11:50:33.110Z,0.60
2022-09-20T11:55:51.472Z,0.55
2022-09-20T12:00:55.825Z,0.82
2022-09-20T12:12:46.970Z,1.00
2022-09-20T12:17:48.861Z,1.05
2022-09-20T12:22:50.814Z,0.70
2022-09-20T12:27:57.418Z,1.00
2022-09-20T12:33:02.735Z,1.10
2022-09-20T12:44:04.978Z,1.10
2022-09-20T12:49:47.790Z,0.65
2022-09-20T12:54:53.225Z,0.98
2022-09-20T13:00:01.224Z,0.98
2022-09-20T13:05:03.038Z,1.40
2022-09-20T13:10:23.637Z,1.10
2022-09-20T13:15:26.280Z,1.17
2022-09-20T13:20:34.503Z,0.60
2022-09-20T13:25:39.809Z,0.88
2022-09-20T13:30:41.901Z,0.80
2022-09-20T13:35:47.084Z,0.88
2022-09-20T13:40:50.892Z,1.13
2022-09-20T13:45:56.353Z,1.20
2022-09-20T13:50:58.650Z,0.80
2022-09-20T13:56:30.613Z,0.85
2022-09-20T14:01:35.074Z,1.45
2022-09-20T14:06:42.444Z,0.82
2022-09-20T14:11:45.558Z,0.85
2022-09-20T14:16:51.759Z,0.77
2022-09-20T14:22:05.128Z,0.80
2022-09-20T14:27:12.898Z,0.80
2022-09-20T14:32:17.448Z,0.77
2022-09-20T14:37:32.597Z,1.02
2022-09-20T14:42:43.777Z,0.98
2022-09-20T14:47:59.885Z,1.35
2022-09-20T14:53:03.649Z,1.20
2022-09-20T14:58:10.350Z,1.25
2022-09-20T15:03:15.907Z,1.05
2022-09-20T15:08:28.172Z,1.35
2022-09-20T15:13:30.152Z,1.35
2022-09-20T15:23:58.510Z,1.55
2022-09-20T15:29:05.858Z,1.40
2022-09-20T15:34:12.995Z,1.27
2022-09-20T15:39:24.728Z,1.40
2022-09-20T15:44:26.703Z,1.58
2022-09-20T15:49:31.070Z,1.70
2022-09-20T15:54:32.745Z,1.40
2022-09-20T15:59:36.353Z,1.63
2022-09-20T16:04:37.907Z,1.40
2022-09-20T16:09:39.430Z,2.28
2022-09-20T16:14:41.380Z,3.72
2022-09-20T16:19:46.324Z,2.30
2022-09-20T16:24:47.839Z,2.13
2022-09-20T16:29:49.783Z,3.67
2022-09-20T16:34:54.702Z,2.25
2022-09-20T16:39:57.547Z,2.53
2022-09-20T16:44:59.124Z,3.00
2022-09-20T16:50:01.400Z,1.80
2022-09-20T16:55:04.902Z,1.80
2022-09-20T17:00:07.129Z,2.00
2022-09-20T17:05:08.967Z,2.40
2022-09-20T17:10:11.361Z,2.40
2022-09-20T17:15:13.628Z,3.10
2022-09-20T17:20:15.308Z,9.82
2022-09-20T17:25:16.780Z,4.80
2022-09-20T17:30:18.701Z,4.30
2022-09-20T17:35:22.446Z,4.80
2022-09-20T17:40:24.041Z,4.43
2022-09-20T17:45:25.992Z,3.80
2022-09-20T17:50:27.576Z,4.38
2022-09-20T17:55:29.822Z,12.23
2022-09-20T18:00:31.596Z,15.25
2022-09-20T18:05:33.310Z,13.02
2022-09-20T18:10:34.891Z,9.75
2022-09-20T18:15:36.516Z,7.78
2022-09-20T18:20:37.982Z,7.70
2022-09-20T18:25:58.329Z,9.52
2022-09-20T18:36:31.547Z,11.88
2022-09-20T18:41:35.520Z,19.50
2022-09-20T18:46:38.088Z,14.57
2022-09-20T18:51:40.414Z,12.65
2022-09-20T18:56:47.253Z,12.93
2022-09-20T19:01:53.157Z,11.80
2022-09-20T19:07:23.098Z,11.27
2022-09-20T19:12:37.392Z,10.70
2022-09-20T19:17:56.442Z,12.88
2022-09-20T19:23:25.068Z,12.70
2022-09-20T19:28:26.993Z,11.35
2022-09-20T19:33:29.603Z,9.60
2022-09-20T19:44:04.358Z,9.88
2022-09-20T19:49:16.424Z,9.48
2022-09-20T19:54:18.684Z,9.23
2022-09-20T19:59:22.632Z,9.73
2022-09-20T20:04:24.459Z,8.60
2022-09-20T20:09:42.158Z,8.55
2022-09-20T20:15:18.748Z,8.85
2022-09-20T20:20:28.272Z,7.72
2022-09-20T20:26:00.040Z,7.63
2022-09-20T20:31:02.160Z,5.90
2022-09-20T20:36:06.617Z,5.18
2022-09-20T20:41:10.803Z,5.18
2022-09-20T20:46:14.806Z,5.32
2022-09-20T20:51:18.827Z,5.18
2022-09-20T20:56:29.904Z,4.78
2022-09-20T21:01:42.725Z,4.88
2022-09-20T21:06:44.986Z,4.57
2022-09-20T21:11:48.326Z,4.60
2022-09-20T21:16:51.639Z,4.38
2022-09-20T21:21:53.440Z,5.18
2022-09-20T21:26:54.975Z,4.97
2022-09-20T21:31:56.539Z,5.15
2022-09-20T21:36:58.312Z,4.28
2022-09-20T21:41:59.872Z,5.18
2022-09-20T21:47:01.432Z,4.80
2022-09-20T21:52:03.712Z,4.25
2022-09-20T21:57:06.060Z,4.18
2022-09-20T22:02:07.677Z,6.32
2022-09-20T22:07:09.931Z,5.15
2022-09-20T22:12:11.521Z,4.10
2022-09-20T22:17:13.229Z,4.55
2022-09-20T22:22:15.319Z,7.55
2022-09-20T22:27:16.837Z,6.45
2022-09-20T22:32:18.674Z,6.57
2022-09-20T22:37:20.349Z,5.43
2022-09-20T22:42:22.027Z,3.60
2022-09-20T22:47:23.683Z,2.97
2022-09-20T22:52:25.184Z,3.20
2022-09-20T22:57:27.067Z,2.67
2022-09-20T23:02:28.651Z,2.65
2022-09-20T23:07:31.293Z,2.50
2022-09-20T23:12:33.036Z,2.33
2022-09-20T23:17:34.587Z,2.33
2022-09-20T23:22:36.232Z,2.42
2022-09-20T23:27:37.918Z,2.60
2022-09-20T23:32:39.624Z,3.60
2022-09-20T23:37:41.188Z,3.10
2022-09-20T23:42:42.778Z,2.70
2022-09-20T23:47:47.503Z,3.10
2022-09-20T23:52:49.043Z,3.60
2022-09-20T23:57:57.649Z,4.07
